Southern Ontario METAR Reports

CYSN - St.Catharines
Updated: 06/17/2019 9:00pm
Mostly cloudy
Mostly cloudy
 Wind from NNE
Wind: NNE 4 km/h
Temperature: 17°C
Dew Point: 14°C
Humidity: 83%
Barometer: 1014.9 hPa
Clouds: Mostly cloudy
Visibility: 24 km
Cloud details: Few Clouds 4572 m
Mostly cloudy 7620 m
2019/06/18 01:00 CYSN 180100Z 03002KT 15SM FEW150 BKN250 17/14 A2997 RMK AC2CI5 LAST STFD OBS/NEXT 18 1100UTC SLP149 DENSITY ALT 600FT
CYHM - Hamilton
Updated: 06/17/2019 9:00pm
Mostly cloudy
Mostly cloudy
 Wind from ENE
Wind: ENE 7 km/h
Temperature: 15°C
Dew Point: 11°C
Humidity: 77%
Barometer: 1015.6 hPa
Clouds: Mostly cloudy
Visibility: 24 km
Cloud details: Partly cloudy 2774 m
Mostly cloudy 7925 m
2019/06/18 01:00 CYHM 180100Z 06004KT 15SM SCT091 BKN260 15/11 A2999 RMK AC3CI3 SLP158 DENSITY ALT 1000FT
 
CYYZ - Toronto
Updated: 06/17/2019 9:00pm
Mostly cloudy
Mostly cloudy
 Wind from SSE
Wind: SSE 17 km/h
Temperature: 17°C
Dew Point: 10°C
Humidity: 64%
Barometer: 1015.6 hPa
Clouds: Mostly cloudy
Visibility: 24 km
Cloud details: Few Clouds 2743 m
Mostly cloudy 7620 m
2019/06/18 01:00 CYYZ 180100Z 15009KT 15SM FEW090 BKN250 17/10 A2999 RMK AC1CI6 SLP157 DENSITY ALT 900FT
CYKF - Waterloo
Updated: 06/17/2019 9:00pm
Partly cloudy
Partly cloudy
 Wind from SE
Wind: SE 9 km/h
Temperature: 16°C
Dew Point: 13°C
Humidity: 83%
Barometer: 1015.6 hPa
Clouds: Partly cloudy
Visibility: 14 km
Cloud details: Partly cloudy 2438 m
2019/06/18 01:00 CYKF 180100Z AUTO 13005KT 9SM SCT080 16/13 A2999 RMK SLP158 DENSITY ALT 1300FT
 
CYXU - London
Updated: 06/17/2019 9:00pm
Overcast
Overcast
 Wind from W
Wind: W 9 km/h
Temperature: 19°C
Dew Point: 14°C
Humidity: 73%
Barometer: 1015.2 hPa
Clouds: Overcast
Visibility: 24 km
Cloud details: Few Clouds 1524 m
Mostly cloudy 2073 m
Overcast 7620 m
2019/06/18 01:00 CYXU 180100Z 26005KT 15SM FEW050 BKN068 OVC250 19/14 A2998 RMK SC1AC4CI3 SLP153 DENSITY ALT 1500FT
CYQG - Windsor
Updated: 06/17/2019 9:00pm
Mostly cloudy
Mostly cloudy
 Wind from E
Wind: E 6 km/h
Temperature: 18°C
Dew Point: 15°C
Humidity: 83%
Barometer: 1015.2 hPa
Clouds: Mostly cloudy
Visibility: 14 km
Cloud details: Partly cloudy 1158 m
Mostly cloudy 7315 m
2019/06/18 01:00 CYQG 180100Z AUTO 08003KT 9SM SCT038 BKN240 18/15 A2998 RMK SLP154 DENSITY ALT 1000FT
 
CYZR - Sarnia
Updated: 06/17/2019 9:00pm
Overcast
Overcast
 Wind from NNW
Wind: NNW 6 km/h
Temperature: 12°C
Dew Point: 10°C
Humidity: 88%
Barometer: 1015.6 hPa
Clouds: Overcast
Visibility: 14 km
Cloud details: Overcast 1433 m
2019/06/18 01:00 CYZR 180100Z AUTO 33003KT 9SM OVC047 12/10 A2999 RMK SLP160
CYVV - Wiarton
Updated: 06/17/2019 9:00pm
Mostly cloudy
Mostly cloudy
 Wind from varies
Wind: varies 4 km/h
Temperature: 14°C
Dew Point: 11°C
Humidity: 82%
Barometer: 1015.6 hPa
Clouds: Mostly cloudy
Visibility: 24 km
Cloud details: Few Clouds 2438 m
Mostly cloudy 7620 m
2019/06/18 01:00 CYVV 180100Z VRB02KT 15SM FEW080 BKN250 14/11 A2999 RMK AC1CI6 AC TR SLP161
 
CYPQ - Peterborough
Updated: 06/17/2019 9:00pm
Mostly cloudy
Mostly cloudy
 Wind from SSW
Wind: SSW 4 km/h
Temperature: 18°C
Dew Point: 14°C
Humidity: 78%
Barometer: 1015.2 hPa
Clouds: Mostly cloudy
Visibility: 14 km
Cloud details: Mostly cloudy 2743 m
2019/06/18 01:00 CYPQ 180100Z AUTO 20002KT 9SM BKN090 18/14 A2998 RMK SLP155 DENSITY ALT 1000FT
CYTR - Trenton
Updated: 06/17/2019 9:00pm
Overcast
Overcast
 Wind from W
Wind: W 4 km/h
Temperature: 19°C
Dew Point: 11°C
Humidity: 60%
Barometer: 1015.2 hPa
Clouds: Overcast
Visibility: 24 km
Cloud details: Partly cloudy 2073 m
Mostly cloudy 2438 m
Overcast 6096 m
2019/06/18 01:00 CYTR 180100Z 26002KT 15SM SCT068 BKN080 OVC200 19/11 A2998 RMK AC4AC1CI3 SLP152